sensor_id;sensor_type;location;lat;lon;timestamp;temperature;humidity
2723;DHT22;1369;53.216;10.396;2023-05-10T00:01:28;14.20;91.00
2723;DHT22;1369;53.216;10.396;2023-05-10T00:03:54;14.20;91.30
2723;DHT22;1369;53.216;10.396;2023-05-10T00:06:19;14.20;91.20
2723;DHT22;1369;53.216;10.396;2023-05-10T00:08:45;14.20;91.20
2723;DHT22;1369;53.216;10.396;2023-05-10T00:11:11;14.20;91.40
2723;DHT22;1369;53.216;10.396;2023-05-10T00:13:36;14.20;91.60
2723;DHT22;1369;53.216;10.396;2023-05-10T00:16:02;14.10;91.60
2723;DHT22;1369;53.216;10.396;2023-05-10T00:18:27;14.10;91.80
2723;DHT22;1369;53.216;10.396;2023-05-10T00:20:53;14.00;91.90
2723;DHT22;1369;53.216;10.396;2023-05-10T00:23:18;14.00;92.20
2723;DHT22;1369;53.216;10.396;2023-05-10T00:25:44;14.00;92.10
2723;DHT22;1369;53.216;10.396;2023-05-10T00:28:09;13.90;92.20
2723;DHT22;1369;53.216;10.396;2023-05-10T00:30:35;13.90;92.30
2723;DHT22;1369;53.216;10.396;2023-05-10T00:33:00;13.90;92.60
2723;DHT22;1369;53.216;10.396;2023-05-10T00:35:26;13.90;92.50
2723;DHT22;1369;53.216;10.396;2023-05-10T00:37:51;13.90;92.60
2723;DHT22;1369;53.216;10.396;2023-05-10T00:40:17;13.80;92.70
2723;DHT22;1369;53.216;10.396;2023-05-10T00:42:43;13.80;92.80
2723;DHT22;1369;53.216;10.396;2023-05-10T00:45:08;13.70;93.50
2723;DHT22;1369;53.216;10.396;2023-05-10T00:47:34;13.70;94.10
2723;DHT22;1369;53.216;10.396;2023-05-10T00:50:00;13.60;93.70
2723;DHT22;1369;53.216;10.396;2023-05-10T00:52:27;13.60;93.70
2723;DHT22;1369;53.216;10.396;2023-05-10T00:54:52;13.60;94.20
2723;DHT22;1369;53.216;10.396;2023-05-10T00:57:18;13.50;93.80
2723;DHT22;1369;53.216;10.396;2023-05-10T00:59:44;13.60;94.00
2723;DHT22;1369;53.216;10.396;2023-05-10T01:02:10;13.60;94.30
2723;DHT22;1369;53.216;10.396;2023-05-10T01:04:37;13.50;94.20
2723;DHT22;1369;53.216;10.396;2023-05-10T01:07:03;13.50;94.60
2723;DHT22;1369;53.216;10.396;2023-05-10T01:09:28;13.50;94.60
2723;DHT22;1369;53.216;10.396;2023-05-10T01:11:54;13.50;94.50
2723;DHT22;1369;53.216;10.396;2023-05-10T01:14:20;13.50;94.40
2723;DHT22;1369;53.216;10.396;2023-05-10T01:16:47;13.40;95.00
2723;DHT22;1369;53.216;10.396;2023-05-10T01:19:27;13.40;95.10
2723;DHT22;1369;53.216;10.396;2023-05-10T01:36:02;13.20;95.70
2723;DHT22;1369;53.216;10.396;2023-05-10T01:38:40;13.20;95.50
2723;DHT22;1369;53.216;10.396;2023-05-10T01:44:46;13.20;95.80
2723;DHT22;1369;53.216;10.396;2023-05-10T01:47:29;13.20;96.00
2723;DHT22;1369;53.216;10.396;2023-05-10T01:49:53;13.10;96.50
2723;DHT22;1369;53.216;10.396;2023-05-10T01:52:25;13.10;96.10
2723;DHT22;1369;53.216;10.396;2023-05-10T01:54:57;13.10;96.50
2723;DHT22;1369;53.216;10.396;2023-05-10T01:57:27;13.10;96.40
2723;DHT22;1369;53.216;10.396;2023-05-10T01:59:57;13.00;97.30
2723;DHT22;1369;53.216;10.396;2023-05-10T02:02:25;12.90;97.30
2723;DHT22;1369;53.216;10.396;2023-05-10T02:04:53;12.90;97.60
2723;DHT22;1369;53.216;10.396;2023-05-10T02:07:20;12.80;97.30
2723;DHT22;1369;53.216;10.396;2023-05-10T02:09:47;12.80;97.40
2723;DHT22;1369;53.216;10.396;2023-05-10T02:12:14;12.80;98.50
2723;DHT22;1369;53.216;10.396;2023-05-10T02:14:41;12.80;99.60
2723;DHT22;1369;53.216;10.396;2023-05-10T02:17:09;12.70;99.10
2723;DHT22;1369;53.216;10.396;2023-05-10T02:19:36;12.70;98.40
2723;DHT22;1369;53.216;10.396;2023-05-10T02:22:03;12.70;98.70
2723;DHT22;1369;53.216;10.396;2023-05-10T02:24:29;12.60;99.40
2723;DHT22;1369;53.216;10.396;2023-05-10T02:26:56;12.60;99.10
2723;DHT22;1369;53.216;10.396;2023-05-10T02:29:23;12.50;99.70
2723;DHT22;1369;53.216;10.396;2023-05-10T02:31:51;12.50;99.50
2723;DHT22;1369;53.216;10.396;2023-05-10T02:34:19;12.50;99.70
2723;DHT22;1369;53.216;10.396;2023-05-10T02:36:47;12.40;99.90
2723;DHT22;1369;53.216;10.396;2023-05-10T02:39:14;12.40;99.90
2723;DHT22;1369;53.216;10.396;2023-05-10T02:41:41;12.30;99.90
2723;DHT22;1369;53.216;10.396;2023-05-10T02:44:08;12.30;99.90
2723;DHT22;1369;53.216;10.396;2023-05-10T02:46:35;12.20;99.90
2723;DHT22;1369;53.216;10.396;2023-05-10T02:49:02;12.30;99.90
2723;DHT22;1369;53.216;10.396;2023-05-10T02:51:31;12.30;99.90
2723;DHT22;1369;53.216;10.396;2023-05-10T02:53:57;12.20;99.90
2723;DHT22;1369;53.216;10.396;2023-05-10T02:56:36;12.20;99.90
2723;DHT22;1369;53.216;10.396;2023-05-10T02:59:04;12.20;99.90
2723;DHT22;1369;53.216;10.396;2023-05-10T03:01:30;12.20;99.90
2723;DHT22;1369;53.216;10.396;2023-05-10T03:03:55;12.20;99.90
2723;DHT22;1369;53.216;10.396;2023-05-10T03:06:21;12.10;99.90
2723;DHT22;1369;53.216;10.396;2023-05-10T03:08:46;12.20;99.90
2723;DHT22;1369;53.216;10.396;2023-05-10T03:11:55;12.10;99.90
2723;DHT22;1369;53.216;10.396;2023-05-10T03:20:19;12.10;99.90
2723;DHT22;1369;53.216;10.396;2023-05-10T03:22:53;12.00;99.90
2723;DHT22;1369;53.216;10.396;2023-05-10T03:25:21;12.10;99.90
2723;DHT22;1369;53.216;10.396;2023-05-10T03:27:48;12.10;99.90
2723;DHT22;1369;53.216;10.396;2023-05-10T03:30:14;12.20;99.90
2723;DHT22;1369;53.216;10.396;2023-05-10T03:32:40;12.10;99.90
2723;DHT22;1369;53.216;10.396;2023-05-10T03:35:10;12.10;99.90
2723;DHT22;1369;53.216;10.396;2023-05-10T03:37:37;12.10;99.90
2723;DHT22;1369;53.216;10.396;2023-05-10T03:40:03;12.00;99.90
2723;DHT22;1369;53.216;10.396;2023-05-10T03:42:29;12.10;99.90
2723;DHT22;1369;53.216;10.396;2023-05-10T03:44:55;12.20;99.90
2723;DHT22;1369;53.216;10.396;2023-05-10T03:47:20;12.20;99.90
2723;DHT22;1369;53.216;10.396;2023-05-10T03:49:46;12.20;99.90
2723;DHT22;1369;53.216;10.396;2023-05-10T03:52:11;12.20;99.90
2723;DHT22;1369;53.216;10.396;2023-05-10T03:54:37;12.10;99.90
2723;DHT22;1369;53.216;10.396;2023-05-10T03:57:03;12.20;99.90
2723;DHT22;1369;53.216;10.396;2023-05-10T03:59:29;12.20;99.90
2723;DHT22;1369;53.216;10.396;2023-05-10T04:01:54;12.30;99.90
2723;DHT22;1369;53.216;10.396;2023-05-10T04:04:20;12.30;99.90
2723;DHT22;1369;53.216;10.396;2023-05-10T04:06:46;12.30;99.90
2723;DHT22;1369;53.216;10.396;2023-05-10T04:09:12;12.30;99.90
2723;DHT22;1369;53.216;10.396;2023-05-10T04:11:38;12.30;99.90
2723;DHT22;1369;53.216;10.396;2023-05-10T04:14:03;12.30;99.90
2723;DHT22;1369;53.216;10.396;2023-05-10T04:16:29;12.30;99.90
2723;DHT22;1369;53.216;10.396;2023-05-10T04:18:54;12.40;99.90
2723;DHT22;1369;53.216;10.396;2023-05-10T04:21:20;12.40;99.90
2723;DHT22;1369;53.216;10.396;2023-05-10T04:23:45;12.40;99.90
2723;DHT22;1369;53.216;10.396;2023-05-10T04:26:11;12.40;99.90
2723;DHT22;1369;53.216;10.396;2023-05-10T04:28:37;12.40;99.90
2723;DHT22;1369;53.216;10.396;2023-05-10T04:31:05;12.40;99.90
2723;DHT22;1369;53.216;10.396;2023-05-10T04:33:31;12.40;99.90
2723;DHT22;1369;53.216;10.396;2023-05-10T04:35:57;12.50;99.90
2723;DHT22;1369;53.216;10.396;2023-05-10T04:38:23;12.50;99.90
2723;DHT22;1369;53.216;10.396;2023-05-10T04:40:48;12.50;99.90
2723;DHT22;1369;53.216;10.396;2023-05-10T04:43:14;12.50;99.90
2723;DHT22;1369;53.216;10.396;2023-05-10T04:45:39;12.50;99.90
2723;DHT22;1369;53.216;10.396;2023-05-10T04:48:05;12.50;99.90
2723;DHT22;1369;53.216;10.396;2023-05-10T04:50:31;12.60;99.90
2723;DHT22;1369;53.216;10.396;2023-05-10T04:52:57;12.70;99.90
2723;DHT22;1369;53.216;10.396;2023-05-10T04:55:22;12.70;99.90
2723;DHT22;1369;53.216;10.396;2023-05-10T04:57:48;12.80;99.90
2723;DHT22;1369;53.216;10.396;2023-05-10T05:00:14;12.90;99.90
2723;DHT22;1369;53.216;10.396;2023-05-10T05:02:42;12.90;99.90
2723;DHT22;1369;53.216;10.396;2023-05-10T05:05:09;13.00;99.90
2723;DHT22;1369;53.216;10.396;2023-05-10T05:07:34;13.10;99.90
2723;DHT22;1369;53.216;10.396;2023-05-10T05:10:00;13.20;99.90
2723;DHT22;1369;53.216;10.396;2023-05-10T05:12:25;13.30;99.90
2723;DHT22;1369;53.216;10.396;2023-05-10T05:14:51;13.50;99.90
2723;DHT22;1369;53.216;10.396;2023-05-10T05:17:16;13.60;99.90
2723;DHT22;1369;53.216;10.396;2023-05-10T05:19:42;13.70;99.90
2723;DHT22;1369;53.216;10.396;2023-05-10T05:22:07;13.60;99.90
2723;DHT22;1369;53.216;10.396;2023-05-10T05:24:36;13.70;99.90
2723;DHT22;1369;53.216;10.396;2023-05-10T05:27:05;13.80;99.90
2723;DHT22;1369;53.216;10.396;2023-05-10T05:29:31;13.90;99.90
2723;DHT22;1369;53.216;10.396;2023-05-10T05:31:57;14.00;99.90
2723;DHT22;1369;53.216;10.396;2023-05-10T05:34:22;14.00;99.90
2723;DHT22;1369;53.216;10.396;2023-05-10T05:36:48;14.10;99.90
2723;DHT22;1369;53.216;10.396;2023-05-10T05:39:13;14.30;99.90
2723;DHT22;1369;53.216;10.396;2023-05-10T05:41:39;14.30;99.90
2723;DHT22;1369;53.216;10.396;2023-05-10T05:44:04;14.30;99.90
2723;DHT22;1369;53.216;10.396;2023-05-10T05:46:30;14.40;99.90
2723;DHT22;1369;53.216;10.396;2023-05-10T05:48:56;14.60;99.90
2723;DHT22;1369;53.216;10.396;2023-05-10T05:51:21;14.60;99.90
2723;DHT22;1369;53.216;10.396;2023-05-10T05:53:46;14.60;99.90
2723;DHT22;1369;53.216;10.396;2023-05-10T05:56:12;14.90;99.90
2723;DHT22;1369;53.216;10.396;2023-05-10T05:58:38;15.00;99.90
2723;DHT22;1369;53.216;10.396;2023-05-10T06:01:03;15.00;99.90
2723;DHT22;1369;53.216;10.396;2023-05-10T06:03:29;15.20;99.90
2723;DHT22;1369;53.216;10.396;2023-05-10T06:05:54;15.20;99.90
2723;DHT22;1369;53.216;10.396;2023-05-10T06:08:20;15.20;99.90
2723;DHT22;1369;53.216;10.396;2023-05-10T06:10:46;15.30;99.90
2723;DHT22;1369;53.216;10.396;2023-05-10T06:13:11;15.50;99.90
2723;DHT22;1369;53.216;10.396;2023-05-10T06:15:37;15.80;99.90
2723;DHT22;1369;53.216;10.396;2023-05-10T06:18:03;16.10;99.90
2723;DHT22;1369;53.216;10.396;2023-05-10T06:20:28;16.20;99.90
2723;DHT22;1369;53.216;10.396;2023-05-10T06:22:54;16.20;99.90
2723;DHT22;1369;53.216;10.396;2023-05-10T06:25:20;16.20;99.90
2723;DHT22;1369;53.216;10.396;2023-05-10T06:27:45;16.00;99.90
2723;DHT22;1369;53.216;10.396;2023-05-10T06:30:11;16.10;99.90
2723;DHT22;1369;53.216;10.396;2023-05-10T06:32:38;16.00;99.90
2723;DHT22;1369;53.216;10.396;2023-05-10T06:35:04;16.00;99.90
2723;DHT22;1369;53.216;10.396;2023-05-10T06:37:29;16.00;99.90
2723;DHT22;1369;53.216;10.396;2023-05-10T06:39:55;16.10;99.90
2723;DHT22;1369;53.216;10.396;2023-05-10T06:42:21;16.10;99.90
2723;DHT22;1369;53.216;10.396;2023-05-10T06:44:46;16.30;99.90
2723;DHT22;1369;53.216;10.396;2023-05-10T06:47:12;16.30;99.90
2723;DHT22;1369;53.216;10.396;2023-05-10T06:49:37;16.40;99.90
2723;DHT22;1369;53.216;10.396;2023-05-10T06:52:03;16.70;99.90
2723;DHT22;1369;53.216;10.396;2023-05-10T06:54:28;17.00;99.90
2723;DHT22;1369;53.216;10.396;2023-05-10T06:56:54;17.20;99.90
2723;DHT22;1369;53.216;10.396;2023-05-10T06:59:19;17.20;99.90
2723;DHT22;1369;53.216;10.396;2023-05-10T07:01:46;17.10;99.90
2723;DHT22;1369;53.216;10.396;2023-05-10T07:04:12;17.30;99.90
2723;DHT22;1369;53.216;10.396;2023-05-10T07:06:38;17.40;99.90
2723;DHT22;1369;53.216;10.396;2023-05-10T07:09:03;17.50;99.90
2723;DHT22;1369;53.216;10.396;2023-05-10T07:11:29;17.50;99.60
2723;DHT22;1369;53.216;10.396;2023-05-10T07:13:54;17.50;99.70
2723;DHT22;1369;53.216;10.396;2023-05-10T07:16:20;17.50;99.60
2723;DHT22;1369;53.216;10.396;2023-05-10T07:18:46;17.70;99.90
2723;DHT22;1369;53.216;10.396;2023-05-10T07:21:12;17.90;99.80
2723;DHT22;1369;53.216;10.396;2023-05-10T07:23:37;17.80;99.40
2723;DHT22;1369;53.216;10.396;2023-05-10T07:26:03;17.90;99.30
2723;DHT22;1369;53.216;10.396;2023-05-10T07:28:29;17.60;99.50
2723;DHT22;1369;53.216;10.396;2023-05-10T07:30:54;17.40;99.60
2723;DHT22;1369;53.216;10.396;2023-05-10T07:33:20;17.50;99.90
2723;DHT22;1369;53.216;10.396;2023-05-10T07:35:45;17.40;99.90
2723;DHT22;1369;53.216;10.396;2023-05-10T07:38:11;17.20;99.90
2723;DHT22;1369;53.216;10.396;2023-05-10T07:40:37;16.90;99.90
2723;DHT22;1369;53.216;10.396;2023-05-10T07:43:03;16.80;99.90
2723;DHT22;1369;53.216;10.396;2023-05-10T07:45:28;16.70;99.90
2723;DHT22;1369;53.216;10.396;2023-05-10T07:47:54;16.80;99.90
2723;DHT22;1369;53.216;10.396;2023-05-10T07:50:20;16.90;99.90
2723;DHT22;1369;53.216;10.396;2023-05-10T07:52:46;16.90;99.90
2723;DHT22;1369;53.216;10.396;2023-05-10T07:55:13;17.00;99.90
2723;DHT22;1369;53.216;10.396;2023-05-10T07:57:38;17.20;99.90
2723;DHT22;1369;53.216;10.396;2023-05-10T08:00:05;17.30;99.90
2723;DHT22;1369;53.216;10.396;2023-05-10T08:02:30;17.50;99.90
2723;DHT22;1369;53.216;10.396;2023-05-10T08:04:56;17.60;99.90
2723;DHT22;1369;53.216;10.396;2023-05-10T08:07:24;17.70;99.90
2723;DHT22;1369;53.216;10.396;2023-05-10T08:09:49;17.80;99.90
2723;DHT22;1369;53.216;10.396;2023-05-10T08:12:15;18.00;99.90
2723;DHT22;1369;53.216;10.396;2023-05-10T08:14:41;18.30;99.90
2723;DHT22;1369;53.216;10.396;2023-05-10T08:17:06;18.40;99.90
2723;DHT22;1369;53.216;10.396;2023-05-10T08:19:32;18.70;99.90
2723;DHT22;1369;53.216;10.396;2023-05-10T08:21:57;18.90;99.90
2723;DHT22;1369;53.216;10.396;2023-05-10T08:24:23;18.90;99.90
2723;DHT22;1369;53.216;10.396;2023-05-10T08:26:48;19.00;99.40
2723;DHT22;1369;53.216;10.396;2023-05-10T08:29:14;19.00;99.80
2723;DHT22;1369;53.216;10.396;2023-05-10T08:31:40;19.00;99.40
2723;DHT22;1369;53.216;10.396;2023-05-10T08:34:06;19.00;99.50
2723;DHT22;1369;53.216;10.396;2023-05-10T08:36:32;18.90;99.90
2723;DHT22;1369;53.216;10.396;2023-05-10T08:38:57;18.60;99.90
2723;DHT22;1369;53.216;10.396;2023-05-10T08:41:24;18.40;99.90
2723;DHT22;1369;53.216;10.396;2023-05-10T08:43:52;18.20;99.90
2723;DHT22;1369;53.216;10.396;2023-05-10T08:46:18;18.00;99.90
2723;DHT22;1369;53.216;10.396;2023-05-10T08:48:45;17.80;99.90
2723;DHT22;1369;53.216;10.396;2023-05-10T08:51:14;17.70;99.90
2723;DHT22;1369;53.216;10.396;2023-05-10T08:53:40;17.50;99.90
2723;DHT22;1369;53.216;10.396;2023-05-10T08:56:06;17.60;99.90
2723;DHT22;1369;53.216;10.396;2023-05-10T08:58:32;17.50;99.90
2723;DHT22;1369;53.216;10.396;2023-05-10T09:00:58;17.50;99.90
2723;DHT22;1369;53.216;10.396;2023-05-10T09:03:24;17.70;99.90
2723;DHT22;1369;53.216;10.396;2023-05-10T09:05:49;17.70;99.90
2723;DHT22;1369;53.216;10.396;2023-05-10T09:08:15;17.70;99.90
2723;DHT22;1369;53.216;10.396;2023-05-10T09:10:45;17.80;99.90
2723;DHT22;1369;53.216;10.396;2023-05-10T09:13:14;17.60;99.90
2723;DHT22;1369;53.216;10.396;2023-05-10T09:15:40;17.50;99.90
2723;DHT22;1369;53.216;10.396;2023-05-10T09:18:06;17.60;99.90
2723;DHT22;1369;53.216;10.396;2023-05-10T09:20:32;17.60;99.90
2723;DHT22;1369;53.216;10.396;2023-05-10T09:22:57;17.60;99.90
2723;DHT22;1369;53.216;10.396;2023-05-10T09:25:23;17.70;99.90
2723;DHT22;1369;53.216;10.396;2023-05-10T09:27:48;17.80;99.90
2723;DHT22;1369;53.216;10.396;2023-05-10T09:30:32;17.60;99.90
2723;DHT22;1369;53.216;10.396;2023-05-10T09:32:59;17.70;99.90
2723;DHT22;1369;53.216;10.396;2023-05-10T09:35:29;17.60;99.90
2723;DHT22;1369;53.216;10.396;2023-05-10T09:37:57;17.50;99.90
2723;DHT22;1369;53.216;10.396;2023-05-10T09:40:25;17.50;99.90
2723;DHT22;1369;53.216;10.396;2023-05-10T09:45:25;17.40;99.90
2723;DHT22;1369;53.216;10.396;2023-05-10T09:47:52;17.40;99.90
2723;DHT22;1369;53.216;10.396;2023-05-10T09:50:19;17.40;99.90
2723;DHT22;1369;53.216;10.396;2023-05-10T09:53:02;17.40;99.90
2723;DHT22;1369;53.216;10.396;2023-05-10T09:55:40;17.50;99.90
2723;DHT22;1369;53.216;10.396;2023-05-10T09:58:06;17.50;99.90
2723;DHT22;1369;53.216;10.396;2023-05-10T10:00:37;17.70;99.90
2723;DHT22;1369;53.216;10.396;2023-05-10T10:03:03;17.90;99.90
2723;DHT22;1369;53.216;10.396;2023-05-10T10:05:35;18.00;99.90
2723;DHT22;1369;53.216;10.396;2023-05-10T10:08:04;18.20;99.90
2723;DHT22;1369;53.216;10.396;2023-05-10T10:10:31;18.20;99.90
2723;DHT22;1369;53.216;10.396;2023-05-10T10:12:56;18.00;99.90
2723;DHT22;1369;53.216;10.396;2023-05-10T10:15:22;17.80;99.90
2723;DHT22;1369;53.216;10.396;2023-05-10T10:17:49;17.60;99.90
2723;DHT22;1369;53.216;10.396;2023-05-10T10:20:15;17.40;99.90
2723;DHT22;1369;53.216;10.396;2023-05-10T10:22:41;17.20;99.90
2723;DHT22;1369;53.216;10.396;2023-05-10T10:25:10;17.10;99.90
2723;DHT22;1369;53.216;10.396;2023-05-10T10:30:31;16.90;99.90
2723;DHT22;1369;53.216;10.396;2023-05-10T10:35:47;16.40;99.90
2723;DHT22;1369;53.216;10.396;2023-05-10T10:38:13;16.30;99.90
2723;DHT22;1369;53.216;10.396;2023-05-10T10:40:39;16.10;99.90
2723;DHT22;1369;53.216;10.396;2023-05-10T10:43:25;16.00;99.90
2723;DHT22;1369;53.216;10.396;2023-05-10T10:48:35;15.80;99.90
2723;DHT22;1369;53.216;10.396;2023-05-10T10:51:01;15.80;99.90
2723;DHT22;1369;53.216;10.396;2023-05-10T10:53:27;16.00;99.90
2723;DHT22;1369;53.216;10.396;2023-05-10T10:56:09;16.00;99.90
2723;DHT22;1369;53.216;10.396;2023-05-10T10:58:38;16.00;99.90
2723;DHT22;1369;53.216;10.396;2023-05-10T11:01:14;16.10;99.90
2723;DHT22;1369;53.216;10.396;2023-05-10T11:03:41;16.10;99.90
2723;DHT22;1369;53.216;10.396;2023-05-10T11:06:32;16.00;99.90
2723;DHT22;1369;53.216;10.396;2023-05-10T11:08:59;16.20;99.90
2723;DHT22;1369;53.216;10.396;2023-05-10T11:11:30;16.20;99.90
2723;DHT22;1369;53.216;10.396;2023-05-10T11:14:03;16.30;99.90
2723;DHT22;1369;53.216;10.396;2023-05-10T11:16:41;16.30;99.90
2723;DHT22;1369;53.216;10.396;2023-05-10T11:19:10;16.20;99.90
2723;DHT22;1369;53.216;10.396;2023-05-10T11:21:49;16.20;99.90
2723;DHT22;1369;53.216;10.396;2023-05-10T11:24:17;16.30;99.90
2723;DHT22;1369;53.216;10.396;2023-05-10T11:26:43;16.50;99.90
2723;DHT22;1369;53.216;10.396;2023-05-10T11:29:09;16.50;99.90
2723;DHT22;1369;53.216;10.396;2023-05-10T11:31:35;16.60;99.90
2723;DHT22;1369;53.216;10.396;2023-05-10T11:34:06;16.70;99.90
2723;DHT22;1369;53.216;10.396;2023-05-10T11:36:33;16.80;99.90
2723;DHT22;1369;53.216;10.396;2023-05-10T11:38:59;17.00;99.90
2723;DHT22;1369;53.216;10.396;2023-05-10T11:41:28;17.10;99.90
2723;DHT22;1369;53.216;10.396;2023-05-10T11:43:54;17.00;99.90
2723;DHT22;1369;53.216;10.396;2023-05-10T11:46:21;16.80;99.90
2723;DHT22;1369;53.216;10.396;2023-05-10T11:48:50;16.80;99.90
2723;DHT22;1369;53.216;10.396;2023-05-10T11:51:23;16.90;99.90
2723;DHT22;1369;53.216;10.396;2023-05-10T11:53:54;17.10;99.90
2723;DHT22;1369;53.216;10.396;2023-05-10T11:56:20;17.10;99.90
2723;DHT22;1369;53.216;10.396;2023-05-10T11:58:55;17.10;99.90
2723;DHT22;1369;53.216;10.396;2023-05-10T12:01:21;17.30;99.90
2723;DHT22;1369;53.216;10.396;2023-05-10T12:03:48;17.50;99.90
2723;DHT22;1369;53.216;10.396;2023-05-10T12:06:13;17.70;99.90
2723;DHT22;1369;53.216;10.396;2023-05-10T12:08:44;17.90;99.90
2723;DHT22;1369;53.216;10.396;2023-05-10T12:11:12;18.00;99.90
2723;DHT22;1369;53.216;10.396;2023-05-10T12:13:40;17.80;99.90
2723;DHT22;1369;53.216;10.396;2023-05-10T12:16:17;17.80;99.90
2723;DHT22;1369;53.216;10.396;2023-05-10T12:18:43;17.80;99.90
2723;DHT22;1369;53.216;10.396;2023-05-10T12:21:10;17.60;99.90
2723;DHT22;1369;53.216;10.396;2023-05-10T12:23:38;17.50;99.90
2723;DHT22;1369;53.216;10.396;2023-05-10T12:26:04;17.50;99.90
2723;DHT22;1369;53.216;10.396;2023-05-10T12:28:30;17.40;99.90
2723;DHT22;1369;53.216;10.396;2023-05-10T12:30:58;17.20;99.90
2723;DHT22;1369;53.216;10.396;2023-05-10T12:33:24;17.20;99.90
2723;DHT22;1369;53.216;10.396;2023-05-10T12:35:52;17.20;99.90
2723;DHT22;1369;53.216;10.396;2023-05-10T12:39:00;17.10;99.90
2723;DHT22;1369;53.216;10.396;2023-05-10T12:41:27;16.90;99.90
2723;DHT22;1369;53.216;10.396;2023-05-10T12:43:52;16.90;99.90
2723;DHT22;1369;53.216;10.396;2023-05-10T12:46:18;17.00;99.90
2723;DHT22;1369;53.216;10.396;2023-05-10T12:48:44;17.20;99.90
2723;DHT22;1369;53.216;10.396;2023-05-10T12:51:11;17.40;99.90
2723;DHT22;1369;53.216;10.396;2023-05-10T12:53:39;17.50;99.90
2723;DHT22;1369;53.216;10.396;2023-05-10T12:56:05;17.60;99.90
2723;DHT22;1369;53.216;10.396;2023-05-10T12:58:31;17.70;99.90
2723;DHT22;1369;53.216;10.396;2023-05-10T13:00:57;17.80;99.90
2723;DHT22;1369;53.216;10.396;2023-05-10T13:03:23;18.00;99.90
2723;DHT22;1369;53.216;10.396;2023-05-10T13:05:48;18.00;99.90
2723;DHT22;1369;53.216;10.396;2023-05-10T13:08:14;17.90;99.90
2723;DHT22;1369;53.216;10.396;2023-05-10T13:10:40;17.80;99.90
2723;DHT22;1369;53.216;10.396;2023-05-10T13:13:06;17.90;99.90
2723;DHT22;1369;53.216;10.396;2023-05-10T13:15:32;18.00;99.90
2723;DHT22;1369;53.216;10.396;2023-05-10T13:17:58;18.30;99.90
2723;DHT22;1369;53.216;10.396;2023-05-10T13:20:25;18.40;99.90
2723;DHT22;1369;53.216;10.396;2023-05-10T13:22:50;18.40;99.90
2723;DHT22;1369;53.216;10.396;2023-05-10T13:25:16;18.40;99.90
2723;DHT22;1369;53.216;10.396;2023-05-10T13:27:41;18.50;99.90
2723;DHT22;1369;53.216;10.396;2023-05-10T13:30:08;18.60;99.90
2723;DHT22;1369;53.216;10.396;2023-05-10T13:32:34;18.60;99.90
2723;DHT22;1369;53.216;10.396;2023-05-10T13:35:00;18.40;99.90
2723;DHT22;1369;53.216;10.396;2023-05-10T13:37:25;18.40;99.90
2723;DHT22;1369;53.216;10.396;2023-05-10T13:39:51;18.40;99.90
2723;DHT22;1369;53.216;10.396;2023-05-10T13:42:17;18.50;99.90
2723;DHT22;1369;53.216;10.396;2023-05-10T13:44:43;18.50;99.90
2723;DHT22;1369;53.216;10.396;2023-05-10T13:47:08;18.30;99.90
2723;DHT22;1369;53.216;10.396;2023-05-10T13:49:34;18.30;99.90
2723;DHT22;1369;53.216;10.396;2023-05-10T13:52:00;18.40;99.90
2723;DHT22;1369;53.216;10.396;2023-05-10T13:54:34;18.50;99.90
2723;DHT22;1369;53.216;10.396;2023-05-10T13:57:00;18.50;99.90
2723;DHT22;1369;53.216;10.396;2023-05-10T13:59:26;18.70;99.90
2723;DHT22;1369;53.216;10.396;2023-05-10T14:01:51;18.70;99.90
2723;DHT22;1369;53.216;10.396;2023-05-10T14:04:17;18.60;99.90
2723;DHT22;1369;53.216;10.396;2023-05-10T14:06:43;18.80;99.90
2723;DHT22;1369;53.216;10.396;2023-05-10T14:09:08;19.10;99.90
2723;DHT22;1369;53.216;10.396;2023-05-10T14:11:34;19.30;99.90
2723;DHT22;1369;53.216;10.396;2023-05-10T14:13:59;19.50;99.90
2723;DHT22;1369;53.216;10.396;2023-05-10T14:16:25;19.70;99.90
2723;DHT22;1369;53.216;10.396;2023-05-10T14:18:51;19.80;99.90
2723;DHT22;1369;53.216;10.396;2023-05-10T14:21:16;20.00;99.90
2723;DHT22;1369;53.216;10.396;2023-05-10T14:23:42;19.90;99.90
2723;DHT22;1369;53.216;10.396;2023-05-10T14:26:07;19.70;99.90
2723;DHT22;1369;53.216;10.396;2023-05-10T14:28:33;19.60;99.90
2723;DHT22;1369;53.216;10.396;2023-05-10T14:30:59;19.70;99.90
2723;DHT22;1369;53.216;10.396;2023-05-10T14:33:24;19.70;99.90
2723;DHT22;1369;53.216;10.396;2023-05-10T14:35:50;19.60;99.90
2723;DHT22;1369;53.216;10.396;2023-05-10T14:38:16;19.80;99.90
2723;DHT22;1369;53.216;10.396;2023-05-10T14:40:41;19.90;99.90
2723;DHT22;1369;53.216;10.396;2023-05-10T14:43:08;20.00;99.90
2723;DHT22;1369;53.216;10.396;2023-05-10T14:45:33;20.10;99.90
2723;DHT22;1369;53.216;10.396;2023-05-10T14:47:59;20.20;99.90
2723;DHT22;1369;53.216;10.396;2023-05-10T14:50:25;20.30;99.90
2723;DHT22;1369;53.216;10.396;2023-05-10T14:52:51;20.20;99.90
2723;DHT22;1369;53.216;10.396;2023-05-10T14:55:16;20.00;99.90
2723;DHT22;1369;53.216;10.396;2023-05-10T14:57:42;19.90;99.90
2723;DHT22;1369;53.216;10.396;2023-05-10T15:00:09;19.80;99.90
2723;DHT22;1369;53.216;10.396;2023-05-10T15:02:35;19.90;99.90
2723;DHT22;1369;53.216;10.396;2023-05-10T15:05:01;19.70;99.90
2723;DHT22;1369;53.216;10.396;2023-05-10T15:07:26;19.70;99.90
2723;DHT22;1369;53.216;10.396;2023-05-10T15:09:52;19.50;99.90
2723;DHT22;1369;53.216;10.396;2023-05-10T15:12:18;19.10;99.90
2723;DHT22;1369;53.216;10.396;2023-05-10T15:14:44;19.00;99.90
2723;DHT22;1369;53.216;10.396;2023-05-10T15:17:09;19.20;99.90
2723;DHT22;1369;53.216;10.396;2023-05-10T15:19:35;19.10;99.90
2723;DHT22;1369;53.216;10.396;2023-05-10T15:22:02;19.00;99.90
2723;DHT22;1369;53.216;10.396;2023-05-10T15:24:27;19.10;99.90
2723;DHT22;1369;53.216;10.396;2023-05-10T15:26:53;19.00;99.90
2723;DHT22;1369;53.216;10.396;2023-05-10T15:29:19;19.10;99.90
2723;DHT22;1369;53.216;10.396;2023-05-10T15:31:48;19.10;99.90
2723;DHT22;1369;53.216;10.396;2023-05-10T15:34:15;18.90;99.90
2723;DHT22;1369;53.216;10.396;2023-05-10T15:36:40;18.70;99.90
2723;DHT22;1369;53.216;10.396;2023-05-10T15:39:06;18.60;99.90
2723;DHT22;1369;53.216;10.396;2023-05-10T15:41:32;18.50;99.90
2723;DHT22;1369;53.216;10.396;2023-05-10T15:43:58;18.60;99.90
2723;DHT22;1369;53.216;10.396;2023-05-10T15:46:30;18.50;99.90
2723;DHT22;1369;53.216;10.396;2023-05-10T15:48:57;18.70;99.90
2723;DHT22;1369;53.216;10.396;2023-05-10T15:51:22;18.60;99.90
2723;DHT22;1369;53.216;10.396;2023-05-10T15:53:48;18.50;99.90
2723;DHT22;1369;53.216;10.396;2023-05-10T15:56:13;18.50;99.90
2723;DHT22;1369;53.216;10.396;2023-05-10T15:58:40;18.40;99.90
2723;DHT22;1369;53.216;10.396;2023-05-10T16:01:06;18.30;99.90
2723;DHT22;1369;53.216;10.396;2023-05-10T16:03:32;18.30;99.90
2723;DHT22;1369;53.216;10.396;2023-05-10T16:05:58;18.30;99.90
2723;DHT22;1369;53.216;10.396;2023-05-10T16:08:23;18.20;99.90
2723;DHT22;1369;53.216;10.396;2023-05-10T16:10:52;18.10;99.90
2723;DHT22;1369;53.216;10.396;2023-05-10T16:13:17;18.00;99.90
2723;DHT22;1369;53.216;10.396;2023-05-10T16:15:43;18.10;99.90
2723;DHT22;1369;53.216;10.396;2023-05-10T16:18:09;18.20;99.90